sensor_id;sensor_type;location;lat;lon;timestamp;P1;durP1;ratioP1;P2;durP2;ratioP2
74229;SDS011;62589;12.568;99.958;2023-02-15T00:01:37;26.80;;;17.35;;
74229;SDS011;62589;12.568;99.958;2023-02-15T00:04:04;26.30;;;16.73;;
74229;SDS011;62589;12.568;99.958;2023-02-15T00:06:32;22.27;;;16.05;;
74229;SDS011;62589;12.568;99.958;2023-02-15T00:08:59;26.00;;;15.48;;
74229;SDS011;62589;12.568;99.958;2023-02-15T00:11:26;21.20;;;14.65;;
74229;SDS011;62589;12.568;99.958;2023-02-15T00:14:06;21.90;;;14.90;;
74229;SDS011;62589;12.568;99.958;2023-02-15T00:16:38;22.27;;;15.00;;
74229;SDS011;62589;12.568;99.958;2023-02-15T00:19:06;20.48;;;14.18;;
74229;SDS011;62589;12.568;99.958;2023-02-15T00:21:33;22.17;;;14.52;;
74229;SDS011;62589;12.568;99.958;2023-02-15T00:24:01;19.88;;;14.73;;
74229;SDS011;62589;12.568;99.958;2023-02-15T00:26:29;23.60;;;14.15;;
74229;SDS011;62589;12.568;99.958;2023-02-15T00:28:56;17.92;;;13.38;;
74229;SDS011;62589;12.568;99.958;2023-02-15T00:31:27;19.27;;;13.52;;
74229;SDS011;62589;12.568;99.958;2023-02-15T00:34:00;15.60;;;12.80;;
74229;SDS011;62589;12.568;99.958;2023-02-15T00:36:30;19.15;;;13.57;;
74229;SDS011;62589;12.568;99.958;2023-02-15T00:38:57;18.15;;;12.93;;
74229;SDS011;62589;12.568;99.958;2023-02-15T00:41:24;17.50;;;13.65;;
74229;SDS011;62589;12.568;99.958;2023-02-15T00:43:51;19.08;;;13.82;;
74229;SDS011;62589;12.568;99.958;2023-02-15T00:46:17;17.15;;;13.00;;
74229;SDS011;62589;12.568;99.958;2023-02-15T00:48:43;18.88;;;12.73;;
74229;SDS011;62589;12.568;99.958;2023-02-15T00:51:10;18.45;;;12.73;;
74229;SDS011;62589;12.568;99.958;2023-02-15T00:53:36;21.27;;;12.60;;
74229;SDS011;62589;12.568;99.958;2023-02-15T00:56:03;15.43;;;12.27;;
74229;SDS011;62589;12.568;99.958;2023-02-15T00:58:29;14.52;;;11.68;;
74229;SDS011;62589;12.568;99.958;2023-02-15T01:01:01;18.45;;;12.85;;
74229;SDS011;62589;12.568;99.958;2023-02-15T01:03:31;19.15;;;12.30;;
74229;SDS011;62589;12.568;99.958;2023-02-15T01:05:57;17.90;;;13.10;;
74229;SDS011;62589;12.568;99.958;2023-02-15T01:08:24;15.48;;;11.40;;
74229;SDS011;62589;12.568;99.958;2023-02-15T01:10:50;15.13;;;11.88;;
74229;SDS011;62589;12.568;99.958;2023-02-15T01:13:17;14.65;;;12.30;;
74229;SDS011;62589;12.568;99.958;2023-02-15T01:15:43;16.80;;;12.30;;
74229;SDS011;62589;12.568;99.958;2023-02-15T01:18:10;19.75;;;12.35;;
74229;SDS011;62589;12.568;99.958;2023-02-15T01:20:38;13.73;;;11.13;;
74229;SDS011;62589;12.568;99.958;2023-02-15T01:23:07;13.50;;;10.93;;
74229;SDS011;62589;12.568;99.958;2023-02-15T01:25:34;14.57;;;10.70;;
74229;SDS011;62589;12.568;99.958;2023-02-15T01:28:01;14.90;;;10.23;;
74229;SDS011;62589;12.568;99.958;2023-02-15T01:30:28;17.88;;;10.18;;
74229;SDS011;62589;12.568;99.958;2023-02-15T01:32:55;13.15;;;10.65;;
74229;SDS011;62589;12.568;99.958;2023-02-15T01:35:21;18.45;;;10.73;;
74229;SDS011;62589;12.568;99.958;2023-02-15T01:37:48;14.15;;;10.60;;
74229;SDS011;62589;12.568;99.958;2023-02-15T01:40:15;14.75;;;10.55;;
74229;SDS011;62589;12.568;99.958;2023-02-15T01:42:43;12.80;;;10.07;;
74229;SDS011;62589;12.568;99.958;2023-02-15T01:47:58;14.02;;;10.45;;
74229;SDS011;62589;12.568;99.958;2023-02-15T01:50:30;11.68;;;9.32;;
74229;SDS011;62589;12.568;99.958;2023-02-15T01:53:13;12.18;;;9.52;;
74229;SDS011;62589;12.568;99.958;2023-02-15T01:55:57;13.77;;;9.13;;
74229;SDS011;62589;12.568;99.958;2023-02-15T01:58:30;14.07;;;9.02;;
74229;SDS011;62589;12.568;99.958;2023-02-15T02:01:00;13.15;;;9.23;;
74229;SDS011;62589;12.568;99.958;2023-02-15T02:06:17;16.42;;;10.18;;
74229;SDS011;62589;12.568;99.958;2023-02-15T02:08:45;13.65;;;10.23;;
74229;SDS011;62589;12.568;99.958;2023-02-15T02:11:12;12.65;;;9.73;;
74229;SDS011;62589;12.568;99.958;2023-02-15T02:13:41;17.48;;;9.95;;
74229;SDS011;62589;12.568;99.958;2023-02-15T02:25:20;13.95;;;9.60;;
74229;SDS011;62589;12.568;99.958;2023-02-15T02:34:16;14.27;;;9.02;;
74229;SDS011;62589;12.568;99.958;2023-02-15T02:40:04;12.05;;;8.32;;
74229;SDS011;62589;12.568;99.958;2023-02-15T02:45:41;11.38;;;8.13;;
74229;SDS011;62589;12.568;99.958;2023-02-15T02:48:16;16.95;;;9.40;;
74229;SDS011;62589;12.568;99.958;2023-02-15T02:50:50;13.73;;;9.10;;
74229;SDS011;62589;12.568;99.958;2023-02-15T02:53:16;15.85;;;8.60;;
74229;SDS011;62589;12.568;99.958;2023-02-15T02:55:47;19.00;;;8.68;;
74229;SDS011;62589;12.568;99.958;2023-02-15T02:58:35;16.17;;;8.40;;
74229;SDS011;62589;12.568;99.958;2023-02-15T03:01:15;12.05;;;8.95;;
74229;SDS011;62589;12.568;99.958;2023-02-15T03:03:53;13.15;;;8.55;;
74229;SDS011;62589;12.568;99.958;2023-02-15T03:06:25;11.43;;;8.75;;
74229;SDS011;62589;12.568;99.958;2023-02-15T03:09:07;11.18;;;8.20;;
74229;SDS011;62589;12.568;99.958;2023-02-15T03:11:46;11.48;;;8.80;;
74229;SDS011;62589;12.568;99.958;2023-02-15T03:14:14;8.57;;;7.00;;
74229;SDS011;62589;12.568;99.958;2023-02-15T03:16:44;11.85;;;9.00;;
74229;SDS011;62589;12.568;99.958;2023-02-15T03:21:57;14.63;;;8.43;;
74229;SDS011;62589;12.568;99.958;2023-02-15T03:24:55;15.75;;;9.30;;
74229;SDS011;62589;12.568;99.958;2023-02-15T03:27:33;11.25;;;8.32;;
74229;SDS011;62589;12.568;99.958;2023-02-15T03:30:04;12.27;;;9.02;;
74229;SDS011;62589;12.568;99.958;2023-02-15T03:35:05;15.32;;;9.43;;
74229;SDS011;62589;12.568;99.958;2023-02-15T03:37:36;13.35;;;9.07;;
74229;SDS011;62589;12.568;99.958;2023-02-15T03:40:27;14.50;;;8.88;;
74229;SDS011;62589;12.568;99.958;2023-02-15T03:46:12;13.00;;;8.70;;
74229;SDS011;62589;12.568;99.958;2023-02-15T03:48:46;16.23;;;9.93;;
74229;SDS011;62589;12.568;99.958;2023-02-15T03:51:18;19.02;;;9.57;;
74229;SDS011;62589;12.568;99.958;2023-02-15T03:54:19;15.65;;;8.77;;
74229;SDS011;62589;12.568;99.958;2023-02-15T03:57:07;11.13;;;8.85;;
74229;SDS011;62589;12.568;99.958;2023-02-15T03:59:54;12.02;;;8.23;;
74229;SDS011;62589;12.568;99.958;2023-02-15T04:02:35;13.07;;;7.88;;
74229;SDS011;62589;12.568;99.958;2023-02-15T04:05:10;10.57;;;7.00;;
74229;SDS011;62589;12.568;99.958;2023-02-15T04:07:37;12.23;;;7.93;;
74229;SDS011;62589;12.568;99.958;2023-02-15T04:10:03;10.27;;;7.72;;
74229;SDS011;62589;12.568;99.958;2023-02-15T04:12:42;10.20;;;7.43;;
74229;SDS011;62589;12.568;99.958;2023-02-15T04:15:11;11.15;;;7.28;;
74229;SDS011;62589;12.568;99.958;2023-02-15T04:17:50;9.85;;;7.20;;
74229;SDS011;62589;12.568;99.958;2023-02-15T04:20:16;10.82;;;7.68;;
74229;SDS011;62589;12.568;99.958;2023-02-15T04:22:54;13.70;;;7.63;;
74229;SDS011;62589;12.568;99.958;2023-02-15T04:25:32;12.27;;;8.13;;
74229;SDS011;62589;12.568;99.958;2023-02-15T04:27:58;12.18;;;7.72;;
74229;SDS011;62589;12.568;99.958;2023-02-15T04:30:25;12.63;;;7.75;;
74229;SDS011;62589;12.568;99.958;2023-02-15T04:32:53;12.48;;;8.02;;
74229;SDS011;62589;12.568;99.958;2023-02-15T04:35:21;12.52;;;8.25;;
74229;SDS011;62589;12.568;99.958;2023-02-15T04:37:48;13.27;;;7.38;;
74229;SDS011;62589;12.568;99.958;2023-02-15T04:40:15;10.13;;;7.50;;
74229;SDS011;62589;12.568;99.958;2023-02-15T04:42:42;11.57;;;7.90;;
74229;SDS011;62589;12.568;99.958;2023-02-15T04:45:09;11.13;;;7.15;;
74229;SDS011;62589;12.568;99.958;2023-02-15T04:47:35;10.52;;;7.15;;
74229;SDS011;62589;12.568;99.958;2023-02-15T04:50:02;11.63;;;7.57;;
74229;SDS011;62589;12.568;99.958;2023-02-15T04:52:28;17.52;;;10.30;;
74229;SDS011;62589;12.568;99.958;2023-02-15T04:54:55;13.60;;;9.23;;
74229;SDS011;62589;12.568;99.958;2023-02-15T04:57:21;9.63;;;8.00;;
74229;SDS011;62589;12.568;99.958;2023-02-15T04:59:48;13.32;;;7.65;;
74229;SDS011;62589;12.568;99.958;2023-02-15T05:02:14;10.65;;;7.53;;
74229;SDS011;62589;12.568;99.958;2023-02-15T05:04:40;9.52;;;6.45;;
74229;SDS011;62589;12.568;99.958;2023-02-15T05:07:07;10.52;;;6.90;;
74229;SDS011;62589;12.568;99.958;2023-02-15T05:09:33;10.82;;;6.80;;
74229;SDS011;62589;12.568;99.958;2023-02-15T05:12:00;13.55;;;7.07;;
74229;SDS011;62589;12.568;99.958;2023-02-15T05:14:26;11.90;;;7.13;;
74229;SDS011;62589;12.568;99.958;2023-02-15T05:16:53;16.25;;;5.07;;
74229;SDS011;62589;12.568;99.958;2023-02-15T05:19:19;21.70;;;5.40;;
74229;SDS011;62589;12.568;99.958;2023-02-15T05:21:46;21.52;;;5.85;;
74229;SDS011;62589;12.568;99.958;2023-02-15T05:24:12;21.63;;;6.35;;
74229;SDS011;62589;12.568;99.958;2023-02-15T05:26:50;18.55;;;6.15;;
74229;SDS011;62589;12.568;99.958;2023-02-15T05:29:28;17.17;;;6.90;;
74229;SDS011;62589;12.568;99.958;2023-02-15T05:31:55;19.38;;;7.25;;
74229;SDS011;62589;12.568;99.958;2023-02-15T05:34:21;17.15;;;7.10;;
74229;SDS011;62589;12.568;99.958;2023-02-15T05:36:48;19.08;;;6.97;;
74229;SDS011;62589;12.568;99.958;2023-02-15T05:39:14;19.13;;;7.05;;
74229;SDS011;62589;12.568;99.958;2023-02-15T05:41:40;14.80;;;5.95;;
74229;SDS011;62589;12.568;99.958;2023-02-15T05:44:07;17.83;;;6.13;;
74229;SDS011;62589;12.568;99.958;2023-02-15T05:46:33;10.82;;;5.93;;
74229;SDS011;62589;12.568;99.958;2023-02-15T05:48:59;10.77;;;4.65;;
74229;SDS011;62589;12.568;99.958;2023-02-15T05:51:26;12.82;;;5.05;;
74229;SDS011;62589;12.568;99.958;2023-02-15T05:53:52;12.63;;;5.57;;
74229;SDS011;62589;12.568;99.958;2023-02-15T05:56:19;17.35;;;6.18;;
74229;SDS011;62589;12.568;99.958;2023-02-15T05:58:45;22.48;;;6.47;;
74229;SDS011;62589;12.568;99.958;2023-02-15T06:01:13;16.38;;;6.57;;
74229;SDS011;62589;12.568;99.958;2023-02-15T06:03:42;21.92;;;7.25;;
74229;SDS011;62589;12.568;99.958;2023-02-15T06:06:09;13.40;;;5.22;;
74229;SDS011;62589;12.568;99.958;2023-02-15T06:08:36;15.63;;;4.63;;
74229;SDS011;62589;12.568;99.958;2023-02-15T06:11:04;12.55;;;3.65;;
74229;SDS011;62589;12.568;99.958;2023-02-15T06:13:31;13.63;;;1.92;;
74229;SDS011;62589;12.568;99.958;2023-02-15T06:15:57;15.10;;;3.10;;
74229;SDS011;62589;12.568;99.958;2023-02-15T06:18:24;15.10;;;3.55;;
74229;SDS011;62589;12.568;99.958;2023-02-15T06:20:51;28.55;;;4.88;;
74229;SDS011;62589;12.568;99.958;2023-02-15T06:23:17;19.40;;;3.58;;
74229;SDS011;62589;12.568;99.958;2023-02-15T06:25:44;12.60;;;2.75;;
74229;SDS011;62589;12.568;99.958;2023-02-15T06:28:11;18.67;;;3.10;;
74229;SDS011;62589;12.568;99.958;2023-02-15T06:30:38;15.60;;;3.25;;
74229;SDS011;62589;12.568;99.958;2023-02-15T06:33:05;17.95;;;3.53;;
74229;SDS011;62589;12.568;99.958;2023-02-15T06:35:31;14.73;;;3.08;;
74229;SDS011;62589;12.568;99.958;2023-02-15T06:37:58;16.70;;;3.47;;
74229;SDS011;62589;12.568;99.958;2023-02-15T06:40:24;16.00;;;3.17;;
74229;SDS011;62589;12.568;99.958;2023-02-15T06:42:51;16.40;;;3.53;;
74229;SDS011;62589;12.568;99.958;2023-02-15T06:45:17;13.23;;;3.28;;
74229;SDS011;62589;12.568;99.958;2023-02-15T06:47:43;17.20;;;3.45;;
74229;SDS011;62589;12.568;99.958;2023-02-15T06:50:10;11.13;;;3.22;;
74229;SDS011;62589;12.568;99.958;2023-02-15T06:52:37;9.43;;;3.50;;
74229;SDS011;62589;12.568;99.958;2023-02-15T06:55:03;11.38;;;3.17;;
74229;SDS011;62589;12.568;99.958;2023-02-15T06:57:30;18.42;;;4.20;;
74229;SDS011;62589;12.568;99.958;2023-02-15T06:59:58;14.15;;;3.97;;
74229;SDS011;62589;12.568;99.958;2023-02-15T07:02:25;8.07;;;3.20;;
74229;SDS011;62589;12.568;99.958;2023-02-15T07:04:51;7.60;;;3.20;;
74229;SDS011;62589;12.568;99.958;2023-02-15T07:07:18;12.30;;;3.33;;
74229;SDS011;62589;12.568;99.958;2023-02-15T07:09:44;6.63;;;3.38;;
74229;SDS011;62589;12.568;99.958;2023-02-15T07:12:11;7.20;;;3.83;;
74229;SDS011;62589;12.568;99.958;2023-02-15T07:14:49;10.00;;;4.00;;
74229;SDS011;62589;12.568;99.958;2023-02-15T07:17:15;12.20;;;4.10;;
74229;SDS011;62589;12.568;99.958;2023-02-15T07:19:42;5.95;;;4.10;;
74229;SDS011;62589;12.568;99.958;2023-02-15T07:22:09;7.90;;;4.85;;
74229;SDS011;62589;12.568;99.958;2023-02-15T07:24:35;14.90;;;7.32;;
74229;SDS011;62589;12.568;99.958;2023-02-15T07:27:02;12.63;;;6.78;;
74229;SDS011;62589;12.568;99.958;2023-02-15T07:29:31;10.10;;;6.15;;
74229;SDS011;62589;12.568;99.958;2023-02-15T07:31:58;10.23;;;5.55;;
74229;SDS011;62589;12.568;99.958;2023-02-15T07:34:24;11.25;;;5.53;;
74229;SDS011;62589;12.568;99.958;2023-02-15T07:36:51;7.55;;;3.25;;
74229;SDS011;62589;12.568;99.958;2023-02-15T07:39:19;10.30;;;2.95;;
74229;SDS011;62589;12.568;99.958;2023-02-15T07:41:45;10.15;;;4.00;;
74229;SDS011;62589;12.568;99.958;2023-02-15T07:44:12;6.80;;;2.78;;
74229;SDS011;62589;12.568;99.958;2023-02-15T07:46:40;6.55;;;3.00;;
74229;SDS011;62589;12.568;99.958;2023-02-15T07:49:07;11.20;;;3.08;;
74229;SDS011;62589;12.568;99.958;2023-02-15T07:51:33;12.35;;;3.35;;
74229;SDS011;62589;12.568;99.958;2023-02-15T07:54:00;7.95;;;2.92;;
74229;SDS011;62589;12.568;99.958;2023-02-15T07:56:26;8.85;;;3.10;;
74229;SDS011;62589;12.568;99.958;2023-02-15T07:58:53;11.15;;;4.03;;
74229;SDS011;62589;12.568;99.958;2023-02-15T08:01:30;14.98;;;5.30;;
74229;SDS011;62589;12.568;99.958;2023-02-15T08:03:58;12.05;;;4.47;;
74229;SDS011;62589;12.568;99.958;2023-02-15T08:06:26;13.35;;;4.88;;
74229;SDS011;62589;12.568;99.958;2023-02-15T08:08:54;13.95;;;3.97;;
74229;SDS011;62589;12.568;99.958;2023-02-15T08:11:22;9.48;;;4.35;;
74229;SDS011;62589;12.568;99.958;2023-02-15T08:14:17;10.75;;;3.92;;
74229;SDS011;62589;12.568;99.958;2023-02-15T08:16:52;8.85;;;3.65;;
74229;SDS011;62589;12.568;99.958;2023-02-15T08:19:25;10.00;;;4.47;;
74229;SDS011;62589;12.568;99.958;2023-02-15T08:21:54;11.73;;;4.00;;
74229;SDS011;62589;12.568;99.958;2023-02-15T08:24:23;10.98;;;3.97;;
74229;SDS011;62589;12.568;99.958;2023-02-15T08:26:51;8.70;;;4.13;;
74229;SDS011;62589;12.568;99.958;2023-02-15T08:29:19;9.60;;;4.03;;
74229;SDS011;62589;12.568;99.958;2023-02-15T08:31:49;9.50;;;3.60;;
74229;SDS011;62589;12.568;99.958;2023-02-15T08:34:18;9.68;;;4.30;;
74229;SDS011;62589;12.568;99.958;2023-02-15T08:36:45;10.73;;;4.20;;
74229;SDS011;62589;12.568;99.958;2023-02-15T08:39:12;10.52;;;4.18;;
74229;SDS011;62589;12.568;99.958;2023-02-15T08:41:44;9.30;;;3.40;;
74229;SDS011;62589;12.568;99.958;2023-02-15T08:44:12;10.45;;;3.67;;
74229;SDS011;62589;12.568;99.958;2023-02-15T08:46:40;8.65;;;3.58;;
74229;SDS011;62589;12.568;99.958;2023-02-15T08:49:09;6.35;;;3.65;;
74229;SDS011;62589;12.568;99.958;2023-02-15T08:51:38;5.05;;;2.83;;
74229;SDS011;62589;12.568;99.958;2023-02-15T08:54:06;11.43;;;3.60;;
74229;SDS011;62589;12.568;99.958;2023-02-15T08:56:35;9.77;;;3.63;;
74229;SDS011;62589;12.568;99.958;2023-02-15T08:59:03;10.55;;;3.38;;
74229;SDS011;62589;12.568;99.958;2023-02-15T09:01:31;11.98;;;3.67;;
74229;SDS011;62589;12.568;99.958;2023-02-15T09:04:00;7.80;;;3.00;;
74229;SDS011;62589;12.568;99.958;2023-02-15T09:06:29;9.32;;;2.80;;
74229;SDS011;62589;12.568;99.958;2023-02-15T09:08:56;6.90;;;2.90;;
74229;SDS011;62589;12.568;99.958;2023-02-15T09:11:24;8.82;;;3.25;;
74229;SDS011;62589;12.568;99.958;2023-02-15T09:13:56;4.30;;;2.55;;
74229;SDS011;62589;12.568;99.958;2023-02-15T09:16:26;5.45;;;2.92;;
74229;SDS011;62589;12.568;99.958;2023-02-15T09:18:54;6.90;;;2.92;;
74229;SDS011;62589;12.568;99.958;2023-02-15T09:21:23;6.82;;;2.92;;
74229;SDS011;62589;12.568;99.958;2023-02-15T09:23:51;6.15;;;3.00;;
74229;SDS011;62589;12.568;99.958;2023-02-15T09:26:21;6.20;;;2.55;;
74229;SDS011;62589;12.568;99.958;2023-02-15T09:28:53;4.30;;;2.80;;
74229;SDS011;62589;12.568;99.958;2023-02-15T09:31:22;5.60;;;2.88;;
74229;SDS011;62589;12.568;99.958;2023-02-15T09:33:51;5.65;;;2.60;;
74229;SDS011;62589;12.568;99.958;2023-02-15T09:36:22;6.30;;;2.85;;
74229;SDS011;62589;12.568;99.958;2023-02-15T09:38:55;5.15;;;2.65;;
74229;SDS011;62589;12.568;99.958;2023-02-15T09:44:17;5.88;;;2.70;;
74229;SDS011;62589;12.568;99.958;2023-02-15T09:47:17;6.00;;;2.60;;
74229;SDS011;62589;12.568;99.958;2023-02-15T09:53:04;3.95;;;3.00;;
74229;SDS011;62589;12.568;99.958;2023-02-15T10:04:42;5.88;;;3.40;;
74229;SDS011;62589;12.568;99.958;2023-02-15T10:07:37;4.72;;;2.38;;
74229;SDS011;62589;12.568;99.958;2023-02-15T10:16:26;4.07;;;3.10;;
74229;SDS011;62589;12.568;99.958;2023-02-15T10:19:22;5.43;;;2.70;;
74229;SDS011;62589;12.568;99.958;2023-02-15T10:22:13;5.93;;;3.40;;
74229;SDS011;62589;12.568;99.958;2023-02-15T10:27:49;5.03;;;3.30;;
74229;SDS011;62589;12.568;99.958;2023-02-15T10:30:23;7.80;;;3.47;;
74229;SDS011;62589;12.568;99.958;2023-02-15T10:33:03;6.18;;;3.60;;
74229;SDS011;62589;12.568;99.958;2023-02-15T10:38:36;6.30;;;3.15;;
74229;SDS011;62589;12.568;99.958;2023-02-15T10:44:44;7.03;;;3.35;;
74229;SDS011;62589;12.568;99.958;2023-02-15T10:47:38;6.18;;;3.63;;
74229;SDS011;62589;12.568;99.958;2023-02-15T10:56:11;9.73;;;4.93;;
74229;SDS011;62589;12.568;99.958;2023-02-15T11:01:38;8.02;;;5.00;;
74229;SDS011;62589;12.568;99.958;2023-02-15T11:04:32;8.32;;;4.85;;
74229;SDS011;62589;12.568;99.958;2023-02-15T11:07:14;8.40;;;4.88;;
74229;SDS011;62589;12.568;99.958;2023-02-15T11:10:04;7.18;;;4.45;;
74229;SDS011;62589;12.568;99.958;2023-02-15T11:12:43;7.35;;;4.00;;
74229;SDS011;62589;12.568;99.958;2023-02-15T11:15:15;5.95;;;4.20;;
74229;SDS011;62589;12.568;99.958;2023-02-15T11:20:53;4.97;;;4.05;;
74229;SDS011;62589;12.568;99.958;2023-02-15T11:23:33;8.60;;;3.80;;
74229;SDS011;62589;12.568;99.958;2023-02-15T11:26:09;7.82;;;3.33;;
74229;SDS011;62589;12.568;99.958;2023-02-15T11:31:35;5.88;;;4.03;;
74229;SDS011;62589;12.568;99.958;2023-02-15T11:34:23;9.75;;;3.90;;
74229;SDS011;62589;12.568;99.958;2023-02-15T11:36:59;5.63;;;3.80;;
74229;SDS011;62589;12.568;99.958;2023-02-15T11:39:36;6.28;;;4.20;;
74229;SDS011;62589;12.568;99.958;2023-02-15T11:42:09;7.65;;;4.40;;
74229;SDS011;62589;12.568;99.958;2023-02-15T11:44:56;6.70;;;4.30;;
74229;SDS011;62589;12.568;99.958;2023-02-15T11:47:30;6.95;;;4.40;;
74229;SDS011;62589;12.568;99.958;2023-02-15T11:49:57;6.75;;;4.57;;
74229;SDS011;62589;12.568;99.958;2023-02-15T11:52:23;5.95;;;4.68;;
74229;SDS011;62589;12.568;99.958;2023-02-15T11:54:50;8.02;;;4.88;;
74229;SDS011;62589;12.568;99.958;2023-02-15T11:57:33;8.93;;;4.95;;
74229;SDS011;62589;12.568;99.958;2023-02-15T12:00:12;7.22;;;4.60;;
74229;SDS011;62589;12.568;99.958;2023-02-15T12:03:07;11.25;;;4.80;;
74229;SDS011;62589;12.568;99.958;2023-02-15T12:06:00;7.72;;;4.60;;
74229;SDS011;62589;12.568;99.958;2023-02-15T12:08:34;6.72;;;4.72;;
74229;SDS011;62589;12.568;99.958;2023-02-15T12:11:09;6.65;;;4.45;;
74229;SDS011;62589;12.568;99.958;2023-02-15T12:16:27;9.63;;;5.65;;
74229;SDS011;62589;12.568;99.958;2023-02-15T12:18:58;9.70;;;5.53;;
74229;SDS011;62589;12.568;99.958;2023-02-15T12:21:28;8.38;;;5.88;;
74229;SDS011;62589;12.568;99.958;2023-02-15T12:29:43;13.45;;;6.45;;
74229;SDS011;62589;12.568;99.958;2023-02-15T12:32:18;13.40;;;6.85;;
74229;SDS011;62589;12.568;99.958;2023-02-15T12:34:51;11.30;;;6.43;;
74229;SDS011;62589;12.568;99.958;2023-02-15T12:37:27;11.77;;;6.75;;
74229;SDS011;62589;12.568;99.958;2023-02-15T12:39:58;12.73;;;6.13;;
74229;SDS011;62589;12.568;99.958;2023-02-15T12:42:27;10.50;;;6.18;;
74229;SDS011;62589;12.568;99.958;2023-02-15T12:45:19;11.20;;;6.65;;
74229;SDS011;62589;12.568;99.958;2023-02-15T12:50:35;10.02;;;5.80;;
74229;SDS011;62589;12.568;99.958;2023-02-15T12:55:58;9.80;;;5.47;;
74229;SDS011;62589;12.568;99.958;2023-02-15T12:58:28;12.20;;;6.72;;
74229;SDS011;62589;12.568;99.958;2023-02-15T13:03:58;10.25;;;5.47;;
74229;SDS011;62589;12.568;99.958;2023-02-15T13:06:48;11.70;;;6.20;;
74229;SDS011;62589;12.568;99.958;2023-02-15T13:09:22;12.98;;;6.10;;
74229;SDS011;62589;12.568;99.958;2023-02-15T13:14:56;9.98;;;5.38;;
74229;SDS011;62589;12.568;99.958;2023-02-15T13:17:26;10.35;;;5.43;;
74229;SDS011;62589;12.568;99.958;2023-02-15T13:20:06;9.88;;;5.95;;
74229;SDS011;62589;12.568;99.958;2023-02-15T13:22:44;10.30;;;5.60;;
74229;SDS011;62589;12.568;99.958;2023-02-15T13:25:17;12.52;;;6.03;;
74229;SDS011;62589;12.568;99.958;2023-02-15T13:27:54;9.05;;;6.13;;
74229;SDS011;62589;12.568;99.958;2023-02-15T13:30:27;10.73;;;5.90;;
74229;SDS011;62589;12.568;99.958;2023-02-15T13:33:08;14.13;;;6.57;;
74229;SDS011;62589;12.568;99.958;2023-02-15T13:36:02;8.77;;;6.00;;
74229;SDS011;62589;12.568;99.958;2023-02-15T13:38:51;11.18;;;5.75;;
74229;SDS011;62589;12.568;99.958;2023-02-15T13:41:46;7.95;;;5.22;;
74229;SDS011;62589;12.568;99.958;2023-02-15T13:56:53;6.63;;;5.18;;
74229;SDS011;62589;12.568;99.958;2023-02-15T14:05:48;6.32;;;4.43;;
74229;SDS011;62589;12.568;99.958;2023-02-15T14:08:34;11.40;;;5.35;;
74229;SDS011;62589;12.568;99.958;2023-02-15T14:17:15;8.98;;;5.28;;
74229;SDS011;62589;12.568;99.958;2023-02-15T14:23:01;7.60;;;5.05;;
74229;SDS011;62589;12.568;99.958;2023-02-15T14:25:40;11.07;;;5.40;;
74229;SDS011;62589;12.568;99.958;2023-02-15T14:28:22;6.55;;;5.07;;
74229;SDS011;62589;12.568;99.958;2023-02-15T14:31:06;12.90;;;6.13;;
74229;SDS011;62589;12.568;99.958;2023-02-15T14:33:39;6.70;;;4.75;;
74229;SDS011;62589;12.568;99.958;2023-02-15T14:36:10;9.18;;;5.35;;
74229;SDS011;62589;12.568;99.958;2023-02-15T14:38:59;9.35;;;5.40;;
74229;SDS011;62589;12.568;99.958;2023-02-15T14:41:53;10.25;;;6.00;;
74229;SDS011;62589;12.568;99.958;2023-02-15T14:44:32;9.95;;;6.10;;
74229;SDS011;62589;12.568;99.958;2023-02-15T14:49:59;8.48;;;5.97;;
74229;SDS011;62589;12.568;99.958;2023-02-15T14:55:35;8.43;;;5.80;;
74229;SDS011;62589;12.568;99.958;2023-02-15T14:58:02;5.85;;;4.93;;
74229;SDS011;62589;12.568;99.958;2023-02-15T15:00:36;6.13;;;4.68;;
74229;SDS011;62589;12.568;99.958;2023-02-15T15:03:11;7.15;;;5.10;;
74229;SDS011;62589;12.568;99.958;2023-02-15T15:05:57;7.50;;;5.25;;
74229;SDS011;62589;12.568;99.958;2023-02-15T15:08:38;5.95;;;4.68;;
74229;SDS011;62589;12.568;99.958;2023-02-15T15:14:03;7.90;;;4.78;;
74229;SDS011;62589;12.568;99.958;2023-02-15T15:16:31;7.00;;;5.00;;
74229;SDS011;62589;12.568;99.958;2023-02-15T15:19:56;6.38;;;4.95;;
74229;SDS011;62589;12.568;99.958;2023-02-15T15:24:58;7.88;;;5.70;;
74229;SDS011;62589;12.568;99.958;2023-02-15T15:27:49;9.13;;;5.60;;
74229;SDS011;62589;12.568;99.958;2023-02-15T15:33:40;9.45;;;5.43;;
74229;SDS011;62589;12.568;99.958;2023-02-15T15:36:50;7.13;;;4.95;;
74229;SDS011;62589;12.568;99.958;2023-02-15T15:42:32;8.93;;;5.70;;
74229;SDS011;62589;12.568;99.958;2023-02-15T15:45:37;10.25;;;5.50;;
74229;SDS011;62589;12.568;99.958;2023-02-15T15:53:58;9.98;;;5.70;;
74229;SDS011;62589;12.568;99.958;2023-02-15T15:56:29;7.75;;;5.93;;
74229;SDS011;62589;12.568;99.958;2023-02-15T15:59:03;7.80;;;5.95;;
74229;SDS011;62589;12.568;99.958;2023-02-15T16:01:36;9.30;;;6.18;;
74229;SDS011;62589;12.568;99.958;2023-02-15T16:04:22;9.02;;;6.35;;
74229;SDS011;62589;12.568;99.958;2023-02-15T16:06:51;9.00;;;6.35;;
74229;SDS011;62589;12.568;99.958;2023-02-15T16:09:20;8.00;;;6.25;;
74229;SDS011;62589;12.568;99.958;2023-02-15T16:11:57;8.27;;;6.07;;
74229;SDS011;62589;12.568;99.958;2023-02-15T16:14:37;8.20;;;5.65;;
74229;SDS011;62589;12.568;99.958;2023-02-15T16:17:06;7.97;;;6.03;;
74229;SDS011;62589;12.568;99.958;2023-02-15T16:19:41;8.82;;;5.88;;
74229;SDS011;62589;12.568;99.958;2023-02-15T16:22:11;9.43;;;6.30;;
74229;SDS011;62589;12.568;99.958;2023-02-15T16:27:45;7.87;;;6.43;;
74229;SDS011;62589;12.568;99.958;2023-02-15T16:30:24;8.70;;;6.25;;
74229;SDS011;62589;12.568;99.958;2023-02-15T16:33:02;8.88;;;6.35;;
74229;SDS011;62589;12.568;99.958;2023-02-15T16:35:37;7.95;;;5.97;;
74229;SDS011;62589;12.568;99.958;2023-02-15T16:38:08;9.25;;;6.63;;
74229;SDS011;62589;12.568;99.958;2023-02-15T16:40:52;8.48;;;6.43;;
74229;SDS011;62589;12.568;99.958;2023-02-15T16:43:24;11.82;;;6.80;;
74229;SDS011;62589;12.568;99.958;2023-02-15T16:45:58;8.10;;;6.95;;
74229;SDS011;62589;12.568;99.958;2023-02-15T16:48:48;9.77;;;7.55;;
74229;SDS011;62589;12.568;99.958;2023-02-15T16:51:18;13.55;;;7.40;;
74229;SDS011;62589;12.568;99.958;2023-02-15T16:53:49;9.38;;;6.70;;
74229;SDS011;62589;12.568;99.958;2023-02-15T16:56:17;13.73;;;7.90;;
74229;SDS011;62589;12.568;99.958;2023-02-15T16:58:50;7.25;;;6.47;;
74229;SDS011;62589;12.568;99.958;2023-02-15T17:01:19;11.50;;;6.97;;
74229;SDS011;62589;12.568;99.958;2023-02-15T17:03:52;10.05;;;6.95;;
74229;SDS011;62589;12.568;99.958;2023-02-15T17:06:41;11.73;;;7.07;;
74229;SDS011;62589;12.568;99.958;2023-02-15T17:09:49;11.25;;;7.63;;
74229;SDS011;62589;12.568;99.958;2023-02-15T17:20:47;8.25;;;6.90;;
74229;SDS011;62589;12.568;99.958;2023-02-15T17:23:35;10.18;;;7.03;;
74229;SDS011;62589;12.568;99.958;2023-02-15T17:26:14;8.43;;;6.85;;
74229;SDS011;62589;12.568;99.958;2023-02-15T17:28:56;9.35;;;6.93;;
74229;SDS011;62589;12.568;99.958;2023-02-15T17:31:30;14.05;;;7.57;;
74229;SDS011;62589;12.568;99.958;2023-02-15T17:33:58;10.07;;;6.90;;
74229;SDS011;62589;12.568;99.958;2023-02-15T17:36:27;10.10;;;7.15;;
74229;SDS011;62589;12.568;99.958;2023-02-15T17:39:00;11.93;;;7.88;;
74229;SDS011;62589;12.568;99.958;2023-02-15T17:41:34;10.27;;;6.20;;
74229;SDS011;62589;12.568;99.958;2023-02-15T17:44:02;10.43;;;6.97;;